Time;durP1;ratioP1;P1;durP2;ratioP2;P2;SDS_P1;SDS_P2;PMS_P1;PMS_P2;Temp;Humidity;BMP_temperature;BMP_pressure;BME280_temperature;BME280_humidity;BME280_pressure;Samples;Min_cycle;Max_cycle;Signal;HPM_P1;HPM_P2
2022/01/06 00:01:43;;;;;;;13.90;1.73;;;5.00;73.40;;;;;;4991756;28;20043;-79
2022/01/06 00:04:08;;;;;;;5.88;1.63;;;5.00;73.30;;;;;;4991707;28;20027;-79
2022/01/06 00:06:38;;;;;;;12.65;2.10;;;5.10;73.40;;;;;;4985821;28;20134;-78
2022/01/06 00:09:06;;;;;;;11.07;1.55;;;5.00;73.30;;;;;;4990061;28;20053;-79
2022/01/06 00:11:32;;;;;;;10.75;1.65;;;5.00;73.20;;;;;;4994728;28;20053;-78
2022/01/06 00:14:04;;;;;;;9.15;2.50;;;5.00;73.00;;;;;;4993411;28;20132;-78
2022/01/06 00:16:44;;;;;;;10.80;1.83;;;5.00;72.90;;;;;;4968976;28;20058;-79
2022/01/06 00:24:24;;;;;;;12.90;1.90;;;4.90;72.40;;;;;;4996006;28;20173;-79
2022/01/06 00:26:50;;;;;;;14.05;2.67;;;4.80;72.40;;;;;;4962891;28;20082;-78
2022/01/06 00:29:19;;;;;;;8.80;2.20;;;4.80;72.40;;;;;;4992795;28;20042;-78
2022/01/06 00:31:45;;;;;;;11.02;2.13;;;4.70;72.30;;;;;;4994524;28;20084;-78
2022/01/06 00:34:11;;;;;;;13.50;2.20;;;4.70;72.80;;;;;;4976898;28;20268;-78
2022/01/06 00:36:38;;;;;;;9.18;2.45;;;4.70;72.50;;;;;;4995136;28;20389;-78
2022/01/06 00:39:05;;;;;;;13.00;2.60;;;4.60;72.50;;;;;;4995495;28;20128;-78
2022/01/06 00:41:33;;;;;;;11.98;2.50;;;4.60;72.60;;;;;;4977296;28;20050;-77
2022/01/06 00:43:59;;;;;;;10.38;2.33;;;4.60;72.70;;;;;;4996319;28;20050;-78
2022/01/06 00:46:24;;;;;;;15.60;2.80;;;4.50;72.90;;;;;;4991741;28;20054;-78
2022/01/06 00:48:50;;;;;;;14.80;3.25;;;4.50;73.20;;;;;;4994451;28;20038;-78
2022/01/06 00:51:16;;;;;;;17.92;3.20;;;4.50;73.40;;;;;;4988922;28;20049;-78
2022/01/06 00:53:42;;;;;;;17.05;2.65;;;4.50;73.60;;;;;;4979059;28;20418;-79
2022/01/06 00:56:07;;;;;;;11.30;2.53;;;4.50;73.90;;;;;;4959409;28;20042;-79
2022/01/06 00:58:33;;;;;;;15.05;2.45;;;4.50;74.00;;;;;;4994486;28;20034;-78
2022/01/06 01:00:59;;;;;;;22.92;3.72;;;4.50;74.10;;;;;;4994879;28;20046;-79
2022/01/06 01:03:27;;;;;;;15.75;2.72;;;4.50;74.10;;;;;;4995479;28;20118;-78
2022/01/06 01:05:55;;;;;;;18.70;3.53;;;4.50;74.10;;;;;;4993411;28;20058;-79
2022/01/06 01:08:22;;;;;;;18.02;2.80;;;4.50;74.20;;;;;;4983614;28;20051;-78
2022/01/06 01:10:49;;;;;;;13.32;2.78;;;4.50;74.20;;;;;;4994440;28;20389;-79
2022/01/06 01:13:16;;;;;;;19.63;3.60;;;4.50;74.20;;;;;;4980613;28;20034;-78
2022/01/06 01:15:51;;;;;;;10.23;2.13;;;4.50;74.10;;;;;;4994514;28;20058;-78
2022/01/06 01:18:19;;;;;;;10.68;2.22;;;4.50;74.00;;;;;;4983676;28;20116;-79
2022/01/06 01:20:46;;;;;;;20.02;3.05;;;4.50;74.10;;;;;;4978278;28;20100;-78
2022/01/06 01:23:13;;;;;;;14.70;2.72;;;4.50;74.20;;;;;;4992039;28;20050;-79
2022/01/06 01:25:38;;;;;;;14.30;2.80;;;4.50;74.20;;;;;;4995194;28;20046;-78
2022/01/06 01:28:04;;;;;;;15.80;2.47;;;4.50;74.30;;;;;;4977290;28;20125;-78
2022/01/06 01:30:39;;;;;;;15.60;3.15;;;4.50;74.40;;;;;;4994827;28;20042;-79
2022/01/06 01:33:13;;;;;;;12.68;2.33;;;4.50;74.50;;;;;;4992873;28;20117;-78
2022/01/06 01:35:39;;;;;;;;;;;4.50;74.40;;;;;;4959138;28;20095;-78
2022/01/06 01:38:04;;;;;;;9.40;2.63;;;4.50;74.40;;;;;;4976177;28;19980;-78
2022/01/06 01:40:30;;;;;;;16.83;3.13;;;4.50;74.50;;;;;;4993812;28;20396;-78
2022/01/06 01:42:56;;;;;;;12.95;3.17;;;4.50;74.40;;;;;;4993448;28;20043;-78
2022/01/06 01:45:27;;;;;;;13.48;2.70;;;4.50;74.40;;;;;;4992159;28;20050;-78
2022/01/06 01:47:53;;;;;;;9.48;2.22;;;4.50;74.40;;;;;;4995011;28;20042;-78
2022/01/06 01:50:21;;;;;;;12.32;2.60;;;4.40;74.30;;;;;;4977420;28;20045;-78
2022/01/06 01:52:52;;;;;;;12.40;2.70;;;4.50;74.30;;;;;;4976113;28;20038;-79
2022/01/06 01:55:22;;;;;;;12.13;2.80;;;4.40;74.10;;;;;;4964466;28;20050;-79
2022/01/06 01:57:48;;;;;;;14.40;3.78;;;4.40;74.00;;;;;;4965959;28;20059;-79
2022/01/06 02:00:15;;;;;;;15.63;3.70;;;4.40;74.00;;;;;;4981841;28;20138;-79
2022/01/06 02:02:41;;;;;;;13.90;3.45;;;4.40;74.10;;;;;;4983565;28;20360;-79
2022/01/06 02:05:08;;;;;;;12.60;4.68;;;4.40;74.20;;;;;;4982780;28;20082;-78
2022/01/06 02:07:36;;;;;;;17.05;4.68;;;4.40;74.30;;;;;;4978536;28;20474;-79
2022/01/06 02:10:03;;;;;;;25.25;8.25;;;4.40;74.40;;;;;;4968330;28;20077;-78
2022/01/06 02:12:32;;;;;;;17.67;5.22;;;4.40;74.40;;;;;;4991633;28;20056;-79
2022/01/06 02:14:58;;;;;;;13.57;3.70;;;4.40;74.40;;;;;;4968297;28;20050;-78
2022/01/06 02:17:24;;;;;;;17.35;4.93;;;4.40;74.30;;;;;;4992525;28;20051;-78
2022/01/06 02:20:00;;;;;;;21.23;5.93;;;4.40;74.40;;;;;;4994392;28;20052;-78
2022/01/06 02:22:27;;;;;;;16.33;4.35;;;4.40;74.50;;;;;;4993266;28;20093;-77
2022/01/06 02:24:53;;;;;;;13.15;4.75;;;4.40;74.60;;;;;;4993379;28;20041;-78
2022/01/06 02:27:20;;;;;;;13.85;3.80;;;4.40;74.60;;;;;;4974441;28;20057;-78
2022/01/06 02:29:51;;;;;;;12.68;3.40;;;4.40;74.60;;;;;;4970100;28;20112;-78
2022/01/06 02:32:19;;;;;;;9.55;2.40;;;4.40;74.60;;;;;;4994331;28;20050;-77
2022/01/06 02:34:45;;;;;;;15.93;3.95;;;4.40;74.50;;;;;;4992533;28;20104;-78
2022/01/06 02:37:13;;;;;;;10.32;2.40;;;4.40;74.40;;;;;;4992656;28;20374;-78
2022/01/06 02:39:40;;;;;;;15.27;2.97;;;4.30;74.30;;;;;;4972401;28;20053;-78
2022/01/06 02:42:06;;;;;;;11.52;2.45;;;4.30;74.10;;;;;;4995164;28;20043;-77
2022/01/06 02:44:32;;;;;;;11.82;2.70;;;4.30;73.80;;;;;;4992895;28;20121;-78
2022/01/06 02:46:58;;;;;;;10.82;2.35;;;4.30;73.60;;;;;;4968489;28;20078;-78
2022/01/06 02:49:23;;;;;;;10.48;2.55;;;4.30;73.70;;;;;;4989665;28;20129;-78
2022/01/06 02:51:49;;;;;;;15.38;2.88;;;4.30;73.90;;;;;;4994271;28;20386;-78
2022/01/06 02:54:15;;;;;;;13.23;2.58;;;4.30;74.10;;;;;;4982482;28;20398;-78
2022/01/06 02:56:43;;;;;;;16.00;2.75;;;4.30;74.20;;;;;;4990346;28;20148;-79
2022/01/06 02:59:09;;;;;;;12.40;2.50;;;4.30;74.30;;;;;;4993574;28;20031;-79
2022/01/06 03:01:43;;;;;;;7.88;2.25;;;4.30;74.30;;;;;;4976533;28;20042;-78
2022/01/06 03:04:10;;;;;;;8.30;2.03;;;4.30;74.50;;;;;;4967385;28;20043;-78
2022/01/06 03:06:36;;;;;;;9.52;2.25;;;4.30;74.50;;;;;;4992281;28;20797;-78
2022/01/06 03:09:02;;;;;;;8.13;2.38;;;4.30;74.50;;;;;;4992778;28;20042;-78
2022/01/06 03:11:28;;;;;;;14.65;2.20;;;4.20;74.30;;;;;;4993376;28;20048;-78
2022/01/06 03:13:55;;;;;;;11.43;2.30;;;4.20;74.20;;;;;;4992598;28;20046;-78
2022/01/06 03:16:21;;;;;;;12.55;2.42;;;4.20;74.10;;;;;;4996462;28;20077;-78
2022/01/06 03:18:47;;;;;;;9.32;1.90;;;4.20;73.90;;;;;;4996648;28;20417;-79
2022/01/06 03:21:12;;;;;;;10.63;2.25;;;4.20;73.80;;;;;;4997058;28;20042;-79
2022/01/06 03:23:38;;;;;;;6.15;1.60;;;4.20;73.60;;;;;;4996096;28;20410;-79
2022/01/06 03:26:04;;;;;;;11.35;2.00;;;4.10;73.20;;;;;;4993631;28;20050;-78
2022/01/06 03:28:30;;;;;;;12.18;2.85;;;4.10;73.30;;;;;;4979850;28;20039;-79
2022/01/06 03:30:56;;;;;;;9.05;2.10;;;4.10;73.50;;;;;;4996853;28;20043;-79
2022/01/06 03:33:22;;;;;;;8.18;1.60;;;4.10;73.70;;;;;;4979742;28;20057;-78
2022/01/06 03:35:47;;;;;;;10.63;2.90;;;4.10;73.90;;;;;;4978981;28;20089;-78
2022/01/06 03:38:13;;;;;;;11.45;2.20;;;4.10;74.00;;;;;;4979980;28;20414;-78
2022/01/06 03:40:40;;;;;;;11.70;1.85;;;4.10;74.20;;;;;;4995998;28;20375;-78
2022/01/06 03:43:06;;;;;;;12.57;2.28;;;4.10;74.40;;;;;;4979875;28;20042;-78
2022/01/06 03:45:33;;;;;;;7.88;1.80;;;4.10;74.50;;;;;;4977887;28;20058;-78
2022/01/06 03:47:59;;;;;;;9.65;2.90;;;4.10;74.50;;;;;;4997190;28;20125;-79
2022/01/06 03:50:25;;;;;;;11.90;2.60;;;4.10;74.60;;;;;;4984609;28;20550;-78
2022/01/06 03:52:51;;;;;;;10.38;1.85;;;4.10;74.70;;;;;;4996464;28;20117;-79
2022/01/06 03:55:19;;;;;;;7.60;2.05;;;4.10;74.60;;;;;;4978195;28;20092;-79
2022/01/06 03:57:45;;;;;;;12.18;1.92;;;4.00;74.40;;;;;;4996634;28;20506;-79
2022/01/06 04:00:14;;;;;;;9.38;2.08;;;4.10;74.50;;;;;;4979041;28;20046;-78
2022/01/06 04:02:41;;;;;;;8.45;2.08;;;4.10;74.50;;;;;;4994192;28;20104;-78
2022/01/06 04:05:07;;;;;;;9.15;1.67;;;4.10;74.60;;;;;;4990804;28;20059;-79
2022/01/06 04:07:33;;;;;;;10.65;2.20;;;4.10;74.50;;;;;;4993542;28;20042;-79
2022/01/06 04:10:00;;;;;;;10.43;2.50;;;4.00;74.30;;;;;;4974588;28;20445;-78
2022/01/06 04:12:25;;;;;;;5.70;1.52;;;4.00;74.30;;;;;;4996722;28;20058;-78
2022/01/06 04:14:51;;;;;;;9.82;1.70;;;4.00;74.20;;;;;;4992683;28;20038;-79
2022/01/06 04:17:16;;;;;;;8.55;2.15;;;4.00;74.20;;;;;;4978934;28;20483;-79
2022/01/06 04:19:42;;;;;;;9.23;2.45;;;4.00;74.10;;;;;;4980591;28;20042;-78
2022/01/06 04:22:08;;;;;;;10.75;1.90;;;4.00;73.90;;;;;;4992373;28;20057;-78
2022/01/06 04:24:34;;;;;;;10.02;1.63;;;4.00;74.00;;;;;;4970213;28;20034;-78
2022/01/06 04:27:00;;;;;;;9.25;1.65;;;3.90;74.00;;;;;;4993672;28;20125;-78
2022/01/06 04:29:26;;;;;;;8.25;2.33;;;3.90;74.10;;;;;;4995880;28;20046;-78
2022/01/06 04:31:52;;;;;;;9.32;1.75;;;3.90;74.20;;;;;;4985678;28;20053;-78
2022/01/06 04:34:18;;;;;;;8.88;1.90;;;3.90;74.20;;;;;;4996592;28;20593;-78
2022/01/06 04:36:49;;;;;;;10.77;1.70;;;3.90;74.30;;;;;;4994143;28;20398;-78
2022/01/06 04:39:15;;;;;;;7.68;1.45;;;3.90;74.30;;;;;;4978495;28;20053;-78
2022/01/06 04:41:40;;;;;;;8.52;1.92;;;3.90;74.40;;;;;;4993831;28;20047;-78
2022/01/06 04:44:06;;;;;;;8.90;2.10;;;3.90;74.40;;;;;;4979042;28;20050;-78
2022/01/06 04:46:31;;;;;;;9.88;2.00;;;3.90;74.40;;;;;;4990529;28;20053;-79
2022/01/06 04:48:57;;;;;;;14.07;2.25;;;3.90;74.40;;;;;;4996231;28;20125;-78
2022/01/06 04:51:23;;;;;;;12.45;3.25;;;3.90;74.50;;;;;;4974414;28;20466;-78
2022/01/06 04:53:48;;;;;;;10.32;1.83;;;3.90;74.50;;;;;;4978624;28;20093;-78
2022/01/06 04:56:14;;;;;;;13.90;2.38;;;3.90;74.60;;;;;;4971381;28;20497;-78
2022/01/06 04:58:40;;;;;;;10.93;2.22;;;3.90;74.60;;;;;;4978177;28;20475;-78
2022/01/06 05:01:05;;;;;;;7.22;1.75;;;3.90;74.60;;;;;;4970031;28;20050;-78
2022/01/06 05:03:31;;;;;;;8.45;1.75;;;3.90;74.60;;;;;;4975216;28;20046;-78
2022/01/06 05:05:57;;;;;;;7.85;2.08;;;3.90;74.70;;;;;;4992545;28;20081;-78
2022/01/06 05:08:22;;;;;;;11.05;1.85;;;3.90;74.70;;;;;;4973731;28;20061;-78
2022/01/06 05:10:48;;;;;;;13.48;1.80;;;3.90;74.70;;;;;;4991469;28;20050;-78
2022/01/06 05:13:14;;;;;;;10.63;2.38;;;3.80;75.00;;;;;;4989561;28;20077;-78
2022/01/06 05:15:39;;;;;;;8.52;1.67;;;3.80;74.50;;;;;;4993063;28;20053;-78
2022/01/06 05:18:05;;;;;;;12.23;2.63;;;3.80;74.50;;;;;;4969014;28;20165;-78
2022/01/06 05:20:31;;;;;;;10.63;1.88;;;3.90;74.50;;;;;;4994699;28;20044;-78
2022/01/06 05:22:57;;;;;;;7.07;1.50;;;3.80;74.50;;;;;;4994409;28;20128;-79
2022/01/06 05:25:29;;;;;;;10.25;2.47;;;3.80;74.40;;;;;;4993451;28;20433;-78
2022/01/06 05:27:55;;;;;;;8.50;1.60;;;3.80;74.40;;;;;;4976308;28;20497;-78
2022/01/06 05:30:22;;;;;;;6.80;1.63;;;3.80;74.40;;;;;;4995120;28;20038;-79
2022/01/06 05:32:48;;;;;;;8.02;2.38;;;3.70;74.20;;;;;;4966323;28;20541;-79
2022/01/06 05:35:13;;;;;;;9.68;1.60;;;3.70;74.20;;;;;;4994006;28;20038;-78
2022/01/06 05:37:39;;;;;;;8.18;2.00;;;3.70;74.20;;;;;;4993378;28;20432;-78
2022/01/06 05:40:06;;;;;;;7.97;1.58;;;3.70;74.20;;;;;;4973913;28;20035;-78
2022/01/06 05:42:31;;;;;;;14.48;2.25;;;3.70;74.20;;;;;;4974001;28;20150;-78
2022/01/06 05:44:57;;;;;;;5.95;1.48;;;3.70;74.20;;;;;;4995132;28;20043;-78
2022/01/06 05:47:22;;;;;;;11.82;2.13;;;3.60;74.20;;;;;;4993446;28;20045;-78
2022/01/06 05:49:48;;;;;;;10.95;2.45;;;3.60;74.20;;;;;;4959414;28;20062;-78
2022/01/06 05:52:14;;;;;;;10.13;1.70;;;3.60;74.20;;;;;;4990385;28;20042;-78
2022/01/06 05:54:40;;;;;;;13.50;2.00;;;3.60;74.20;;;;;;4994455;28;20042;-79
2022/01/06 05:57:07;;;;;;;7.13;2.00;;;3.60;74.30;;;;;;4974447;28;20057;-78
2022/01/06 05:59:32;;;;;;;11.57;2.67;;;3.60;74.30;;;;;;4974235;28;20047;-78
2022/01/06 06:01:59;;;;;;;8.80;2.28;;;3.60;74.30;;;;;;4986724;28;20497;-79
2022/01/06 06:04:24;;;;;;;8.48;1.60;;;3.60;74.30;;;;;;4994452;28;20042;-79
2022/01/06 06:06:50;;;;;;;8.82;2.10;;;3.50;74.30;;;;;;4992260;28;20129;-78
2022/01/06 06:09:16;;;;;;;9.15;1.65;;;3.50;74.30;;;;;;4972444;28;20057;-79
2022/01/06 06:11:42;;;;;;;10.07;1.77;;;3.50;74.30;;;;;;4992890;28;20050;-78
2022/01/06 06:14:07;;;;;;;4.90;1.35;;;3.50;74.70;;;;;;4987304;28;20126;-78
2022/01/06 06:16:33;;;;;;;6.60;1.50;;;3.50;74.40;;;;;;4993640;28;20053;-78
2022/01/06 06:18:59;;;;;;;8.50;2.55;;;3.50;74.40;;;;;;4970126;28;20046;-78
2022/01/06 06:21:24;;;;;;;9.30;1.50;;;3.40;74.40;;;;;;4994123;28;20039;-78
2022/01/06 06:23:50;;;;;;;9.32;1.83;;;3.50;74.40;;;;;;4994128;28;20089;-78
2022/01/06 06:26:16;;;;;;;10.63;1.98;;;3.40;74.40;;;;;;4967825;28;20126;-78
2022/01/06 06:28:42;;;;;;;8.15;1.75;;;3.40;74.40;;;;;;4987007;28;20121;-78
2022/01/06 06:31:08;;;;;;;7.82;1.90;;;3.40;74.40;;;;;;4987115;28;20113;-78
2022/01/06 06:33:33;;;;;;;8.35;1.90;;;3.40;74.40;;;;;;4992566;28;20523;-78
2022/01/06 06:35:59;;;;;;;10.32;2.90;;;3.40;74.40;;;;;;4987707;28;20047;-78
2022/01/06 06:38:25;;;;;;;11.30;1.77;;;3.30;74.40;;;;;;4975282;28;20466;-78
2022/01/06 06:40:50;;;;;;;12.15;2.22;;;3.40;74.50;;;;;;4992086;28;20042;-78
2022/01/06 06:43:16;;;;;;;10.88;2.22;;;3.30;74.50;;;;;;4994237;28;20053;-78
2022/01/06 06:45:42;;;;;;;9.55;1.92;;;3.30;74.50;;;;;;4963622;28;20058;-78
2022/01/06 06:48:09;;;;;;;10.57;1.88;;;3.40;74.60;;;;;;4993844;28;20049;-78
2022/01/06 06:50:35;;;;;;;10.73;2.20;;;3.30;74.60;;;;;;4966747;28;20062;-78
2022/01/06 06:53:02;;;;;;;12.60;1.95;;;3.30;74.60;;;;;;4975605;28;20039;-78
2022/01/06 06:55:28;;;;;;;7.10;1.80;;;3.30;74.60;;;;;;4991994;28;20074;-78
2022/01/06 06:57:54;;;;;;;5.68;1.48;;;3.30;74.60;;;;;;4993448;28;20112;-78
2022/01/06 07:00:20;;;;;;;8.82;2.42;;;3.30;74.70;;;;;;4993841;28;20510;-78
2022/01/06 07:02:46;;;;;;;14.95;2.45;;;3.30;74.70;;;;;;4992400;28;20050;-78
2022/01/06 07:05:12;;;;;;;11.50;1.95;;;3.30;74.70;;;;;;4993699;28;20058;-78
2022/01/06 07:07:37;;;;;;;9.70;1.75;;;3.30;74.80;;;;;;4993663;28;20046;-78
2022/01/06 07:10:04;;;;;;;8.07;1.90;;;3.30;74.80;;;;;;4977088;28;20045;-77
2022/01/06 07:12:30;;;;;;;8.15;2.03;;;3.20;74.80;;;;;;4969660;28;20085;-78
2022/01/06 07:14:57;;;;;;;9.10;1.80;;;3.20;74.80;;;;;;4993992;28;20042;-78
2022/01/06 07:17:23;;;;;;;7.85;2.20;;;3.20;74.80;;;;;;4992883;28;20042;-78
2022/01/06 07:19:48;;;;;;;12.05;2.45;;;3.20;74.80;;;;;;4993510;28;20125;-78
2022/01/06 07:22:14;;;;;;;10.23;2.10;;;3.20;74.80;;;;;;4974840;28;20088;-78
2022/01/06 07:24:40;;;;;;;11.30;1.77;;;3.20;74.80;;;;;;4993711;28;20038;-78
2022/01/06 07:27:06;;;;;;;9.55;2.25;;;3.20;74.80;;;;;;4993854;28;20042;-78
2022/01/06 07:29:31;;;;;;;7.35;2.30;;;3.20;74.80;;;;;;4975792;28;20057;-79
2022/01/06 07:31:57;;;;;;;9.75;2.50;;;3.20;74.80;;;;;;4991571;28;20138;-78
2022/01/06 07:34:22;;;;;;;10.93;1.90;;;3.20;74.80;;;;;;4992869;28;20371;-79
2022/01/06 07:36:48;;;;;;;9.68;2.22;;;3.20;74.70;;;;;;4975544;28;20058;-78
2022/01/06 07:39:14;;;;;;;13.88;1.83;;;3.20;74.80;;;;;;4993161;28;20486;-78
2022/01/06 07:41:39;;;;;;;9.00;2.08;;;3.20;74.80;;;;;;4994084;28;20479;-78
2022/01/06 07:44:07;;;;;;;13.30;2.30;;;3.10;74.80;;;;;;4990487;28;20058;-78
2022/01/06 07:46:34;;;;;;;10.73;2.30;;;3.20;74.90;;;;;;4994023;28;20170;-79
2022/01/06 07:49:00;;;;;;;10.45;2.53;;;3.10;74.90;;;;;;4968365;28;20042;-79
2022/01/06 07:51:28;;;;;;;14.02;3.50;;;3.10;74.90;;;;;;4975739;28;20125;-78
2022/01/06 07:53:55;;;;;;;7.47;2.03;;;3.10;74.90;;;;;;4991880;28;20058;-79
2022/01/06 07:56:21;;;;;;;14.05;3.83;;;3.10;74.90;;;;;;4975865;28;20046;-78
2022/01/06 07:58:48;;;;;;;15.98;3.83;;;3.10;75.00;;;;;;4992041;28;20116;-79
2022/01/06 08:01:14;;;;;;;12.50;5.43;;;3.10;75.00;;;;;;4975291;28;20046;-87
2022/01/06 08:03:40;;;;;;;16.45;5.97;;;3.10;75.10;;;;;;4991098;28;20060;-78
2022/01/06 08:06:06;;;;;;;18.53;6.07;;;3.10;75.00;;;;;;4995782;28;20054;-78
2022/01/06 08:08:32;;;;;;;14.70;5.53;;;3.10;75.00;;;;;;4995849;28;20460;-77
2022/01/06 08:10:58;;;;;;;13.55;4.68;;;3.10;75.00;;;;;;4996585;28;20129;-77
2022/01/06 08:13:23;;;;;;;13.35;4.57;;;3.10;75.00;;;;;;4987485;28;20394;-77
2022/01/06 08:15:49;;;;;;;12.40;4.10;;;3.10;75.00;;;;;;4959744;28;20058;-77
2022/01/06 08:18:15;;;;;;;17.38;5.03;;;3.10;75.00;;;;;;4991504;28;20038;-78
2022/01/06 08:20:40;;;;;;;20.88;5.20;;;3.10;75.00;;;;;;4994184;28;20041;-77
2022/01/06 08:23:07;;;;;;;11.60;4.30;;;3.10;75.00;;;;;;4993470;28;20081;-77
2022/01/06 08:25:35;;;;;;;11.37;4.70;;;3.10;75.10;;;;;;4992739;28;20129;-77
2022/01/06 08:28:00;;;;;;;17.23;5.93;;;3.10;75.10;;;;;;4978497;28;20046;-78
2022/01/06 08:30:27;;;;;;;13.20;3.77;;;3.10;75.10;;;;;;4996221;28;20074;-77
2022/01/06 08:32:54;;;;;;;12.83;4.63;;;3.10;75.10;;;;;;4993991;28;20046;-77
2022/01/06 08:35:21;;;;;;;16.43;4.27;;;3.10;75.20;;;;;;4976284;28;20077;-77
2022/01/06 08:37:47;;;;;;;14.17;3.50;;;3.10;75.30;;;;;;4976568;28;20058;-77
2022/01/06 08:40:13;;;;;;;10.47;3.43;;;3.10;75.30;;;;;;4995410;28;20085;-78
2022/01/06 08:42:39;;;;;;;12.40;4.50;;;3.10;75.30;;;;;;4995683;28;20497;-77
2022/01/06 08:45:05;;;;;;;15.83;3.90;;;3.10;75.40;;;;;;4980575;28;20126;-77
2022/01/06 08:47:31;;;;;;;16.33;4.20;;;3.10;75.40;;;;;;4991795;28;20046;-78
2022/01/06 08:49:57;;;;;;;15.45;3.92;;;3.20;75.50;;;;;;4983921;28;20049;-78
2022/01/06 08:52:24;;;;;;;12.80;4.00;;;3.20;75.50;;;;;;4995906;28;20042;-78
2022/01/06 08:54:50;;;;;;;16.15;3.60;;;3.20;75.60;;;;;;4975092;28;20035;-78
2022/01/06 08:57:15;;;;;;;15.40;3.70;;;3.20;75.70;;;;;;4993881;28;20385;-77
2022/01/06 08:59:41;;;;;;;16.00;3.70;;;3.20;75.70;;;;;;4980100;28;20046;-78
2022/01/06 09:02:08;;;;;;;19.98;3.72;;;3.30;76.00;;;;;;4976534;28;20046;-77
2022/01/06 09:04:34;;;;;;;16.38;3.20;;;3.30;76.10;;;;;;4993210;28;20038;-79
2022/01/06 09:07:00;;;;;;;21.83;3.38;;;3.30;76.00;;;;;;4993464;28;20057;-79
2022/01/06 09:09:26;;;;;;;13.77;3.20;;;3.40;76.10;;;;;;4992890;28;20045;-79
2022/01/06 09:11:51;;;;;;;14.45;3.25;;;3.40;76.10;;;;;;4993559;28;20046;-79
2022/01/06 09:14:17;;;;;;;12.23;2.67;;;3.50;76.20;;;;;;4993595;28;20074;-78
2022/01/06 09:16:43;;;;;;;12.13;3.00;;;3.50;76.10;;;;;;4985247;28;20052;-78
2022/01/06 09:19:09;;;;;;;11.35;2.97;;;3.50;76.10;;;;;;4991273;28;20057;-78
2022/01/06 09:21:35;;;;;;;12.52;3.38;;;3.60;76.20;;;;;;4994342;28;20117;-78
2022/01/06 09:24:06;;;;;;;12.38;3.45;;;3.60;76.10;;;;;;4991499;28;20047;-79
2022/01/06 09:26:36;;;;;;;14.60;3.22;;;3.70;76.10;;;;;;4994831;28;20046;-79
2022/01/06 09:29:07;;;;;;;18.15;3.65;;;3.70;76.10;;;;;;4992150;28;20081;-78
2022/01/06 09:31:34;;;;;;;13.00;2.92;;;3.70;76.10;;;;;;4990854;28;20397;-78
2022/01/06 09:34:01;;;;;;;13.00;3.00;;;3.80;76.10;;;;;;4993908;28;20425;-78
2022/01/06 09:36:27;;;;;;;14.77;3.20;;;3.80;76.20;;;;;;4969897;28;20077;-79
2022/01/06 09:38:54;;;;;;;14.20;2.85;;;3.90;76.30;;;;;;4994359;28;20070;-78
2022/01/06 09:41:20;;;;;;;13.77;3.33;;;4.00;76.40;;;;;;4972919;28;20398;-79
2022/01/06 09:43:48;;;;;;;15.75;2.72;;;4.00;76.40;;;;;;4978601;28;20034;-79
2022/01/06 09:46:14;;;;;;;11.80;3.58;;;4.10;76.50;;;;;;4988496;28;20118;-77
2022/01/06 09:48:40;;;;;;;14.65;3.42;;;4.20;76.50;;;;;;4993649;28;20121;-79
2022/01/06 09:51:08;;;;;;;13.52;3.75;;;4.20;76.50;;;;;;4972998;28;20122;-79
2022/01/06 09:53:33;;;;;;;14.90;3.35;;;4.30;76.40;;;;;;4994781;28;20375;-78
2022/01/06 09:55:59;;;;;;;10.88;3.63;;;4.40;76.30;;;;;;4973620;28;20045;-79
2022/01/06 09:58:26;;;;;;;14.65;3.10;;;4.50;76.20;;;;;;4993535;28;20041;-76
2022/01/06 10:00:55;;;;;;;9.73;2.70;;;4.60;76.10;;;;;;4991660;28;20474;-77
2022/01/06 10:03:32;;;;;;;8.38;2.72;;;4.60;75.90;;;;;;4993690;28;20082;-77
2022/01/06 10:06:08;;;;;;;12.70;2.45;;;4.70;75.90;;;;;;4983065;28;20050;-77
2022/01/06 10:08:34;;;;;;;10.73;2.22;;;4.70;75.70;;;;;;4966465;28;20478;-80
2022/01/06 10:11:14;;;;;;;15.13;2.95;;;4.80;75.60;;;;;;4960603;28;20052;-77
2022/01/06 10:13:42;;;;;;;14.82;3.35;;;4.90;75.50;;;;;;4972212;28;20126;-75
2022/01/06 10:16:19;;;;;;;12.88;2.85;;;4.90;75.30;;;;;;4979523;28;20057;-76
2022/01/06 10:19:15;;;;;;;10.02;2.75;;;5.00;75.10;;;;;;4985339;28;20498;-77
2022/01/06 10:21:45;;;;;;;14.70;3.92;;;5.00;74.80;;;;;;4989842;28;20071;-77
2022/01/06 10:24:16;;;;;;;9.43;3.08;;;5.10;74.70;;;;;;4981316;28;20051;-78
2022/01/06 10:26:57;;;;;;;10.32;2.92;;;5.10;74.40;;;;;;4974431;28;20137;-78
2022/01/06 10:29:26;;;;;;;10.15;3.13;;;5.10;74.20;;;;;;4992976;28;20176;-77
2022/01/06 10:31:53;;;;;;;9.55;3.00;;;5.20;74.20;;;;;;4981414;28;20074;-77
2022/01/06 10:34:18;;;;;;;13.60;3.95;;;5.20;74.00;;;;;;4975104;28;20537;-77
2022/01/06 10:36:48;;;;;;;13.77;3.00;;;5.20;73.90;;;;;;4993378;28;20038;-77
2022/01/06 10:39:13;;;;;;;14.43;3.63;;;5.20;73.80;;;;;;4988215;28;20044;-77
2022/01/06 10:41:39;;;;;;;13.05;3.65;;;5.30;73.80;;;;;;4977702;28;20038;-76
2022/01/06 10:44:10;;;;;;;16.60;3.55;;;5.30;73.70;;;;;;4961597;28;20054;-77
2022/01/06 10:46:39;;;;;;;10.77;4.35;;;5.30;73.60;;;;;;4967276;28;20081;-76
2022/01/06 10:49:11;;;;;;;12.25;2.88;;;5.30;73.60;;;;;;4994137;28;20042;-76
2022/01/06 10:51:43;;;;;;;13.35;3.17;;;5.30;73.60;;;;;;4980234;28;20034;-76
2022/01/06 10:54:13;;;;;;;14.93;3.38;;;5.30;73.60;;;;;;4993488;28;20053;-76
2022/01/06 10:56:39;;;;;;;12.55;3.05;;;5.40;74.00;;;;;;4972453;28;20410;-76
2022/01/06 10:59:04;;;;;;;17.55;2.97;;;5.30;73.50;;;;;;4994538;28;20046;-76
2022/01/06 11:01:35;;;;;;;8.38;2.38;;;5.40;73.60;;;;;;4974964;28;20050;-76
2022/01/06 11:04:01;;;;;;;11.52;2.50;;;5.40;73.60;;;;;;4975232;28;20493;-76
2022/01/06 11:06:28;;;;;;;13.50;2.90;;;5.40;73.60;;;;;;4987698;28;20538;-76
2022/01/06 11:08:55;;;;;;;10.88;2.50;;;5.40;73.70;;;;;;4989796;28;20445;-76
2022/01/06 11:12:26;;;;;;;12.52;2.90;;;5.40;73.70;;;;;;4969530;28;20149;-76
2022/01/06 11:14:20;;;;;;;15.23;2.97;;;5.50;73.80;;;;;;4992191;28;20050;-76
2022/01/06 11:16:46;;;;;;;13.60;2.90;;;5.40;73.80;;;;;;4993271;28;20089;-76
2022/01/06 11:19:12;;;;;;;12.90;2.67;;;5.50;73.90;;;;;;4991849;28;20081;-77
2022/01/06 11:21:45;;;;;;;13.13;2.92;;;5.50;73.90;;;;;;4990895;28;20053;-76
2022/01/06 11:24:13;;;;;;;13.50;3.03;;;5.50;73.90;;;;;;4990440;28;20478;-76
2022/01/06 11:26:40;;;;;;;12.13;2.97;;;5.50;74.00;;;;;;4992145;28;20088;-77
2022/01/06 11:29:07;;;;;;;13.07;3.10;;;5.60;74.10;;;;;;4993187;28;20097;-76
2022/01/06 11:31:40;;;;;;;11.57;3.05;;;5.60;74.20;;;;;;4974721;28;20141;-76
2022/01/06 11:34:18;;;;;;;13.82;2.92;;;5.60;74.30;;;;;;4989089;28;20052;-75
2022/01/06 11:36:46;;;;;;;15.20;3.35;;;5.60;74.40;;;;;;4966054;28;20120;-76
2022/01/06 11:39:27;;;;;;;12.70;3.10;;;5.60;74.40;;;;;;4987286;28;20074;-76
2022/01/06 11:41:53;;;;;;;14.77;2.72;;;5.60;74.50;;;;;;4969038;28;20062;-83
2022/01/06 11:44:26;;;;;;;16.92;4.28;;;5.70;74.60;;;;;;4975402;28;20058;-83
2022/01/06 11:46:56;;;;;;;16.60;2.90;;;5.70;74.60;;;;;;4995301;28;20053;-84
2022/01/06 11:49:40;;;;;;;12.18;3.20;;;5.70;74.60;;;;;;4974334;28;20320;-84
2022/01/06 11:52:11;;;;;;;9.73;1.93;;;5.70;74.60;;;;;;4960133;28;20133;-84
2022/01/06 11:54:48;;;;;;;9.52;2.25;;;5.70;74.60;;;;;;4967365;28;20038;-84
2022/01/06 11:57:14;;;;;;;16.05;2.88;;;5.70;74.60;;;;;;4966957;28;20066;-82
2022/01/06 11:59:39;;;;;;;11.80;2.35;;;5.70;74.60;;;;;;4967609;28;20047;-83
2022/01/06 12:02:05;;;;;;;11.50;2.83;;;5.70;74.60;;;;;;4971502;28;20140;-83
2022/01/06 12:04:32;;;;;;;14.85;3.72;;;5.80;74.60;;;;;;4975027;28;20062;-84
2022/01/06 12:07:08;;;;;;;11.75;2.60;;;5.80;74.50;;;;;;4973132;28;20066;-83
2022/01/06 12:09:35;;;;;;;12.70;3.08;;;5.80;74.50;;;;;;4991978;28;20047;-83
2022/01/06 12:12:06;;;;;;;11.63;2.60;;;5.80;74.50;;;;;;4989207;28;20062;-82
2022/01/06 12:14:33;;;;;;;11.85;2.40;;;5.80;74.40;;;;;;4978351;28;20490;-82
2022/01/06 12:17:04;;;;;;;10.27;2.42;;;5.90;74.40;;;;;;4960715;28;20046;-82
2022/01/06 12:19:30;;;;;;;14.45;3.25;;;5.90;74.40;;;;;;4961355;28;20077;-82
2022/01/06 12:21:56;;;;;;;14.52;3.65;;;5.90;74.40;;;;;;4979929;28;20050;-83
2022/01/06 12:24:22;;;;;;;9.57;2.10;;;5.90;74.40;;;;;;4963146;28;20042;-83
2022/01/06 12:26:48;;;;;;;13.55;2.80;;;5.90;74.40;;;;;;4984462;28;20045;-84
2022/01/06 12:29:26;;;;;;;13.77;2.30;;;5.90;74.40;;;;;;4979308;28;20034;-83
2022/01/06 12:32:01;;;;;;;18.75;3.80;;;6.00;74.40;;;;;;4986069;28;20092;-82
2022/01/06 12:34:27;;;;;;;9.63;2.55;;;6.00;74.30;;;;;;4972565;28;20052;-83
2022/01/06 12:36:53;;;;;;;6.85;1.88;;;6.00;74.20;;;;;;4974747;28;20042;-83
2022/01/06 12:39:21;;;;;;;11.15;2.80;;;6.00;74.50;;;;;;4990575;28;20053;-83
2022/01/06 12:41:50;;;;;;;13.05;2.30;;;6.10;74.10;;;;;;4992164;28;20133;-83
2022/01/06 12:44:27;;;;;;;15.13;2.60;;;6.00;73.90;;;;;;4972105;28;20043;-84
2022/01/06 12:46:53;;;;;;;14.82;3.50;;;6.00;73.80;;;;;;4972908;28;20406;-81
2022/01/06 12:49:24;;;;;;;9.77;2.22;;;6.10;73.70;;;;;;4972369;28;20043;-82
2022/01/06 12:51:50;;;;;;;10.07;2.97;;;6.10;73.60;;;;;;4988968;28;20082;-81
2022/01/06 12:54:18;;;;;;;12.82;2.50;;;6.10;73.40;;;;;;4990950;28;20050;-81
2022/01/06 12:56:50;;;;;;;15.63;3.60;;;6.10;73.30;;;;;;4991653;28;20042;-81